Pagina principale
METAR-TAF:

METAR-TAF

Aeroporti :

Rasht, Iran

latitudine: 37-12N, longitudine: 049-38E, altezza: -7 m

Osservazione

Il bollettino è stato emesso 24 minuti fa, alle 15:30 UTC
Vento 8 kt da est/nord-est
Temperature 24°C
Umidità 61%
Pressione 1014 hPa
Visibilità 10 km o più
Nubi sparse ad un'altezza di 10000 ft

METAR: OIGG 051530Z 07008KT 9999 SCT100 24/16 Q1014

Ora: 20:24 (15:54 UTC)


TAF: mancante

Osservazioni e previsioni meteorologiche di più di 4000 aeroporti (messaggi METAR e TAF).

Le stazioni disponibili sono rappresentate dai dischi gialli e rossi sulla carta.

Puntare il mouse per vedere il nome della stazione.

Clicca sopra per visualizzare le osservazioni e previsioni meteorologiche.

Per cambiare la mappa : fare clic sui pulsanti verdi con una croce nera per ingrandire, il pulsante verde con un trattino per diminuire, o sulla freccia verde per le mappe adiacenti.


METAR-TAF: